sensor_id;sensor_type;location;lat;lon;timestamp;P1;durP1;ratioP1;P2;durP2;ratioP2
34064;SDS011;20339;49.754;20.158;2023-01-25T00:01:06;14.40;;;8.50;;
34064;SDS011;20339;49.754;20.158;2023-01-25T00:03:37;15.20;;;10.40;;
34064;SDS011;20339;49.754;20.158;2023-01-25T00:06:08;17.00;;;10.30;;
34064;SDS011;20339;49.754;20.158;2023-01-25T00:08:39;19.60;;;12.00;;
34064;SDS011;20339;49.754;20.158;2023-01-25T00:11:10;16.60;;;10.80;;
34064;SDS011;20339;49.754;20.158;2023-01-25T00:13:44;17.20;;;9.70;;
34064;SDS011;20339;49.754;20.158;2023-01-25T00:16:17;16.40;;;8.30;;
34064;SDS011;20339;49.754;20.158;2023-01-25T00:18:50;19.20;;;11.00;;
34064;SDS011;20339;49.754;20.158;2023-01-25T00:21:21;21.40;;;12.00;;
34064;SDS011;20339;49.754;20.158;2023-01-25T00:23:54;24.50;;;13.00;;
34064;SDS011;20339;49.754;20.158;2023-01-25T00:26:28;21.30;;;13.10;;
34064;SDS011;20339;49.754;20.158;2023-01-25T00:28:59;22.40;;;13.10;;
34064;SDS011;20339;49.754;20.158;2023-01-25T00:31:40;27.60;;;15.80;;
34064;SDS011;20339;49.754;20.158;2023-01-25T00:37:17;29.40;;;16.00;;
34064;SDS011;20339;49.754;20.158;2023-01-25T00:39:52;21.50;;;11.80;;
34064;SDS011;20339;49.754;20.158;2023-01-25T00:42:23;27.20;;;14.70;;
34064;SDS011;20339;49.754;20.158;2023-01-25T00:44:54;24.10;;;14.60;;
34064;SDS011;20339;49.754;20.158;2023-01-25T00:47:25;27.10;;;15.30;;
34064;SDS011;20339;49.754;20.158;2023-01-25T00:49:58;25.90;;;15.60;;
34064;SDS011;20339;49.754;20.158;2023-01-25T00:52:29;30.70;;;15.00;;
34064;SDS011;20339;49.754;20.158;2023-01-25T00:55:00;26.10;;;15.50;;
34064;SDS011;20339;49.754;20.158;2023-01-25T00:57:31;27.60;;;15.40;;
34064;SDS011;20339;49.754;20.158;2023-01-25T01:00:02;24.80;;;15.60;;
34064;SDS011;20339;49.754;20.158;2023-01-25T01:02:34;25.90;;;16.20;;
34064;SDS011;20339;49.754;20.158;2023-01-25T01:05:05;26.30;;;15.00;;
34064;SDS011;20339;49.754;20.158;2023-01-25T01:07:37;28.00;;;15.50;;
34064;SDS011;20339;49.754;20.158;2023-01-25T01:10:08;25.30;;;14.70;;
34064;SDS011;20339;49.754;20.158;2023-01-25T01:12:40;24.00;;;14.50;;
34064;SDS011;20339;49.754;20.158;2023-01-25T01:15:11;23.00;;;14.20;;
34064;SDS011;20339;49.754;20.158;2023-01-25T01:17:42;23.80;;;13.30;;
34064;SDS011;20339;49.754;20.158;2023-01-25T01:20:13;22.30;;;12.90;;
34064;SDS011;20339;49.754;20.158;2023-01-25T01:22:44;20.40;;;12.60;;
34064;SDS011;20339;49.754;20.158;2023-01-25T01:25:15;24.00;;;13.80;;
34064;SDS011;20339;49.754;20.158;2023-01-25T01:27:46;24.10;;;12.20;;
34064;SDS011;20339;49.754;20.158;2023-01-25T01:30:17;20.60;;;12.60;;
34064;SDS011;20339;49.754;20.158;2023-01-25T01:32:51;20.50;;;12.00;;
34064;SDS011;20339;49.754;20.158;2023-01-25T01:35:22;21.40;;;13.80;;
34064;SDS011;20339;49.754;20.158;2023-01-25T01:37:53;23.90;;;13.50;;
34064;SDS011;20339;49.754;20.158;2023-01-25T01:40:24;22.00;;;13.00;;
34064;SDS011;20339;49.754;20.158;2023-01-25T01:43:01;26.30;;;13.80;;
34064;SDS011;20339;49.754;20.158;2023-01-25T01:45:52;25.30;;;13.80;;
34064;SDS011;20339;49.754;20.158;2023-01-25T01:48:27;19.40;;;11.60;;
34064;SDS011;20339;49.754;20.158;2023-01-25T01:51:04;19.80;;;12.00;;
34064;SDS011;20339;49.754;20.158;2023-01-25T01:53:49;20.70;;;12.40;;
34064;SDS011;20339;49.754;20.158;2023-01-25T01:56:26;20.90;;;11.80;;
34064;SDS011;20339;49.754;20.158;2023-01-25T01:59:01;20.10;;;11.50;;
34064;SDS011;20339;49.754;20.158;2023-01-25T02:01:36;18.90;;;11.00;;
34064;SDS011;20339;49.754;20.158;2023-01-25T02:04:07;20.10;;;11.10;;
34064;SDS011;20339;49.754;20.158;2023-01-25T02:06:43;16.20;;;9.80;;
34064;SDS011;20339;49.754;20.158;2023-01-25T02:09:20;14.70;;;9.90;;
34064;SDS011;20339;49.754;20.158;2023-01-25T02:11:54;14.90;;;9.50;;
34064;SDS011;20339;49.754;20.158;2023-01-25T02:14:27;16.30;;;9.70;;
34064;SDS011;20339;49.754;20.158;2023-01-25T02:16:58;15.80;;;10.10;;
34064;SDS011;20339;49.754;20.158;2023-01-25T02:19:33;14.80;;;8.90;;
34064;SDS011;20339;49.754;20.158;2023-01-25T02:22:16;17.50;;;10.40;;
34064;SDS011;20339;49.754;20.158;2023-01-25T02:24:57;14.80;;;8.70;;
34064;SDS011;20339;49.754;20.158;2023-01-25T02:27:32;17.80;;;10.20;;
34064;SDS011;20339;49.754;20.158;2023-01-25T02:30:08;12.60;;;8.00;;
34064;SDS011;20339;49.754;20.158;2023-01-25T02:32:39;15.90;;;8.90;;
34064;SDS011;20339;49.754;20.158;2023-01-25T02:35:16;14.10;;;9.00;;
34064;SDS011;20339;49.754;20.158;2023-01-25T02:37:48;14.50;;;7.80;;
34064;SDS011;20339;49.754;20.158;2023-01-25T02:40:22;14.70;;;9.30;;
34064;SDS011;20339;49.754;20.158;2023-01-25T02:42:53;15.90;;;9.20;;
34064;SDS011;20339;49.754;20.158;2023-01-25T02:45:24;14.40;;;9.20;;
34064;SDS011;20339;49.754;20.158;2023-01-25T02:47:58;13.40;;;8.10;;
34064;SDS011;20339;49.754;20.158;2023-01-25T02:50:28;15.20;;;9.00;;
34064;SDS011;20339;49.754;20.158;2023-01-25T02:52:59;13.40;;;7.40;;
34064;SDS011;20339;49.754;20.158;2023-01-25T02:55:30;12.60;;;7.60;;
34064;SDS011;20339;49.754;20.158;2023-01-25T02:58:01;11.90;;;6.70;;
34064;SDS011;20339;49.754;20.158;2023-01-25T03:00:32;13.50;;;7.40;;
34064;SDS011;20339;49.754;20.158;2023-01-25T03:03:03;11.20;;;7.20;;
34064;SDS011;20339;49.754;20.158;2023-01-25T03:05:34;8.80;;;5.50;;
34064;SDS011;20339;49.754;20.158;2023-01-25T03:08:05;10.50;;;6.10;;
34064;SDS011;20339;49.754;20.158;2023-01-25T03:10:36;10.50;;;6.20;;
34064;SDS011;20339;49.754;20.158;2023-01-25T03:13:06;11.70;;;6.70;;
34064;SDS011;20339;49.754;20.158;2023-01-25T03:15:40;10.60;;;6.30;;
34064;SDS011;20339;49.754;20.158;2023-01-25T03:18:10;9.70;;;6.30;;
34064;SDS011;20339;49.754;20.158;2023-01-25T03:20:41;10.40;;;6.50;;
34064;SDS011;20339;49.754;20.158;2023-01-25T03:23:12;6.70;;;4.00;;
34064;SDS011;20339;49.754;20.158;2023-01-25T03:25:43;7.60;;;4.40;;
34064;SDS011;20339;49.754;20.158;2023-01-25T03:28:14;9.10;;;5.40;;
34064;SDS011;20339;49.754;20.158;2023-01-25T03:30:45;8.10;;;4.80;;
34064;SDS011;20339;49.754;20.158;2023-01-25T03:33:20;9.80;;;6.40;;
34064;SDS011;20339;49.754;20.158;2023-01-25T03:35:52;11.60;;;7.20;;
34064;SDS011;20339;49.754;20.158;2023-01-25T03:38:23;12.00;;;6.90;;
34064;SDS011;20339;49.754;20.158;2023-01-25T03:40:55;12.80;;;7.20;;
34064;SDS011;20339;49.754;20.158;2023-01-25T03:43:26;10.20;;;7.10;;
34064;SDS011;20339;49.754;20.158;2023-01-25T03:45:58;14.20;;;7.60;;
34064;SDS011;20339;49.754;20.158;2023-01-25T03:48:30;11.00;;;6.90;;
34064;SDS011;20339;49.754;20.158;2023-01-25T03:51:01;10.50;;;6.80;;
34064;SDS011;20339;49.754;20.158;2023-01-25T03:53:32;11.30;;;7.90;;
34064;SDS011;20339;49.754;20.158;2023-01-25T03:56:04;11.00;;;7.50;;
34064;SDS011;20339;49.754;20.158;2023-01-25T03:58:37;13.00;;;8.40;;
34064;SDS011;20339;49.754;20.158;2023-01-25T04:01:08;12.70;;;8.40;;
34064;SDS011;20339;49.754;20.158;2023-01-25T04:03:39;11.80;;;7.20;;
34064;SDS011;20339;49.754;20.158;2023-01-25T04:06:10;12.10;;;6.10;;
34064;SDS011;20339;49.754;20.158;2023-01-25T04:08:43;10.10;;;5.40;;
34064;SDS011;20339;49.754;20.158;2023-01-25T04:11:14;11.90;;;6.50;;
34064;SDS011;20339;49.754;20.158;2023-01-25T04:13:45;10.10;;;7.10;;
34064;SDS011;20339;49.754;20.158;2023-01-25T04:16:16;14.00;;;7.10;;
34064;SDS011;20339;49.754;20.158;2023-01-25T04:18:47;10.30;;;6.00;;
34064;SDS011;20339;49.754;20.158;2023-01-25T04:21:18;9.90;;;6.10;;
34064;SDS011;20339;49.754;20.158;2023-01-25T04:23:51;8.40;;;5.70;;
34064;SDS011;20339;49.754;20.158;2023-01-25T04:26:22;10.00;;;5.50;;
34064;SDS011;20339;49.754;20.158;2023-01-25T04:28:53;7.00;;;4.00;;
34064;SDS011;20339;49.754;20.158;2023-01-25T04:31:24;6.50;;;3.90;;
34064;SDS011;20339;49.754;20.158;2023-01-25T04:33:55;6.50;;;4.10;;
34064;SDS011;20339;49.754;20.158;2023-01-25T04:36:26;7.70;;;4.80;;
34064;SDS011;20339;49.754;20.158;2023-01-25T04:38:57;8.10;;;4.80;;
34064;SDS011;20339;49.754;20.158;2023-01-25T04:41:28;7.30;;;4.60;;
34064;SDS011;20339;49.754;20.158;2023-01-25T04:43:59;6.90;;;4.30;;
34064;SDS011;20339;49.754;20.158;2023-01-25T04:46:32;7.60;;;4.20;;
34064;SDS011;20339;49.754;20.158;2023-01-25T04:49:03;9.10;;;5.40;;
34064;SDS011;20339;49.754;20.158;2023-01-25T04:51:35;7.10;;;5.20;;
34064;SDS011;20339;49.754;20.158;2023-01-25T04:54:08;5.60;;;3.60;;
34064;SDS011;20339;49.754;20.158;2023-01-25T04:56:40;7.50;;;4.40;;
34064;SDS011;20339;49.754;20.158;2023-01-25T04:59:11;6.00;;;3.80;;
34064;SDS011;20339;49.754;20.158;2023-01-25T05:01:44;7.40;;;4.70;;
34064;SDS011;20339;49.754;20.158;2023-01-25T05:04:15;6.50;;;4.10;;
34064;SDS011;20339;49.754;20.158;2023-01-25T05:06:47;6.10;;;3.50;;
34064;SDS011;20339;49.754;20.158;2023-01-25T05:09:18;6.00;;;3.60;;
34064;SDS011;20339;49.754;20.158;2023-01-25T05:11:49;6.20;;;4.00;;
34064;SDS011;20339;49.754;20.158;2023-01-25T05:14:20;5.50;;;3.90;;
34064;SDS011;20339;49.754;20.158;2023-01-25T05:16:51;6.20;;;3.80;;
34064;SDS011;20339;49.754;20.158;2023-01-25T05:19:22;6.50;;;3.60;;
34064;SDS011;20339;49.754;20.158;2023-01-25T05:21:53;6.10;;;4.00;;
34064;SDS011;20339;49.754;20.158;2023-01-25T05:24:28;5.60;;;4.00;;
34064;SDS011;20339;49.754;20.158;2023-01-25T05:27:01;5.30;;;3.50;;
34064;SDS011;20339;49.754;20.158;2023-01-25T05:29:33;6.40;;;3.50;;
34064;SDS011;20339;49.754;20.158;2023-01-25T05:32:05;4.10;;;3.30;;
34064;SDS011;20339;49.754;20.158;2023-01-25T05:34:40;6.00;;;3.40;;
34064;SDS011;20339;49.754;20.158;2023-01-25T05:37:14;6.00;;;3.70;;
34064;SDS011;20339;49.754;20.158;2023-01-25T05:39:47;5.20;;;3.20;;
34064;SDS011;20339;49.754;20.158;2023-01-25T05:42:20;5.20;;;3.40;;
34064;SDS011;20339;49.754;20.158;2023-01-25T05:44:51;5.30;;;3.40;;
34064;SDS011;20339;49.754;20.158;2023-01-25T05:47:22;6.30;;;3.80;;
34064;SDS011;20339;49.754;20.158;2023-01-25T05:49:54;5.80;;;3.90;;
34064;SDS011;20339;49.754;20.158;2023-01-25T05:52:26;5.30;;;3.50;;
34064;SDS011;20339;49.754;20.158;2023-01-25T05:54:57;5.70;;;3.60;;
34064;SDS011;20339;49.754;20.158;2023-01-25T05:57:29;5.60;;;3.60;;
34064;SDS011;20339;49.754;20.158;2023-01-25T06:00:00;4.00;;;3.00;;
34064;SDS011;20339;49.754;20.158;2023-01-25T06:02:32;5.90;;;3.60;;
34064;SDS011;20339;49.754;20.158;2023-01-25T06:05:07;5.00;;;2.90;;
34064;SDS011;20339;49.754;20.158;2023-01-25T06:07:40;4.80;;;3.50;;
34064;SDS011;20339;49.754;20.158;2023-01-25T06:10:11;4.60;;;3.50;;
34064;SDS011;20339;49.754;20.158;2023-01-25T06:12:44;6.60;;;4.10;;
34064;SDS011;20339;49.754;20.158;2023-01-25T06:15:19;5.70;;;3.90;;
34064;SDS011;20339;49.754;20.158;2023-01-25T06:17:54;4.80;;;3.40;;
34064;SDS011;20339;49.754;20.158;2023-01-25T06:20:25;7.60;;;4.00;;
34064;SDS011;20339;49.754;20.158;2023-01-25T06:22:56;5.70;;;3.90;;
34064;SDS011;20339;49.754;20.158;2023-01-25T06:25:27;4.00;;;3.00;;
34064;SDS011;20339;49.754;20.158;2023-01-25T06:27:58;4.20;;;3.00;;
34064;SDS011;20339;49.754;20.158;2023-01-25T06:30:32;5.60;;;3.30;;
34064;SDS011;20339;49.754;20.158;2023-01-25T06:33:03;5.20;;;3.20;;
34064;SDS011;20339;49.754;20.158;2023-01-25T06:35:34;5.30;;;3.60;;
34064;SDS011;20339;49.754;20.158;2023-01-25T06:38:07;4.70;;;3.30;;
34064;SDS011;20339;49.754;20.158;2023-01-25T06:40:38;5.50;;;3.50;;
34064;SDS011;20339;49.754;20.158;2023-01-25T06:43:09;4.90;;;3.20;;
34064;SDS011;20339;49.754;20.158;2023-01-25T06:45:40;4.70;;;3.20;;
34064;SDS011;20339;49.754;20.158;2023-01-25T06:48:11;4.80;;;3.10;;
34064;SDS011;20339;49.754;20.158;2023-01-25T06:50:42;4.90;;;3.40;;
34064;SDS011;20339;49.754;20.158;2023-01-25T06:53:13;4.50;;;3.10;;
34064;SDS011;20339;49.754;20.158;2023-01-25T06:55:54;4.30;;;3.10;;
34064;SDS011;20339;49.754;20.158;2023-01-25T06:58:27;4.60;;;2.80;;
34064;SDS011;20339;49.754;20.158;2023-01-25T07:01:00;4.80;;;3.10;;
34064;SDS011;20339;49.754;20.158;2023-01-25T07:03:32;5.80;;;3.30;;
34064;SDS011;20339;49.754;20.158;2023-01-25T07:06:03;4.30;;;3.00;;
34064;SDS011;20339;49.754;20.158;2023-01-25T07:08:36;5.80;;;2.90;;
34064;SDS011;20339;49.754;20.158;2023-01-25T07:11:08;6.40;;;3.70;;
34064;SDS011;20339;49.754;20.158;2023-01-25T07:13:41;7.60;;;4.00;;
34064;SDS011;20339;49.754;20.158;2023-01-25T07:16:14;6.30;;;3.90;;
34064;SDS011;20339;49.754;20.158;2023-01-25T07:18:47;6.30;;;4.50;;
34064;SDS011;20339;49.754;20.158;2023-01-25T07:21:19;6.90;;;4.20;;
34064;SDS011;20339;49.754;20.158;2023-01-25T07:23:52;5.70;;;3.80;;
34064;SDS011;20339;49.754;20.158;2023-01-25T07:26:27;4.70;;;3.40;;
34064;SDS011;20339;49.754;20.158;2023-01-25T07:28:59;4.70;;;3.00;;
34064;SDS011;20339;49.754;20.158;2023-01-25T07:31:30;5.10;;;3.00;;
34064;SDS011;20339;49.754;20.158;2023-01-25T07:34:04;4.50;;;2.80;;
34064;SDS011;20339;49.754;20.158;2023-01-25T07:36:37;3.60;;;2.60;;
34064;SDS011;20339;49.754;20.158;2023-01-25T07:39:10;3.90;;;3.00;;
34064;SDS011;20339;49.754;20.158;2023-01-25T07:41:41;3.30;;;2.30;;
34064;SDS011;20339;49.754;20.158;2023-01-25T07:44:12;4.10;;;2.80;;
34064;SDS011;20339;49.754;20.158;2023-01-25T07:46:44;5.20;;;3.10;;
34064;SDS011;20339;49.754;20.158;2023-01-25T07:49:15;4.00;;;2.90;;
34064;SDS011;20339;49.754;20.158;2023-01-25T07:51:47;5.60;;;3.00;;
34064;SDS011;20339;49.754;20.158;2023-01-25T07:54:18;4.30;;;2.50;;
34064;SDS011;20339;49.754;20.158;2023-01-25T07:56:49;4.20;;;3.00;;
34064;SDS011;20339;49.754;20.158;2023-01-25T07:59:20;27.80;;;11.10;;
34064;SDS011;20339;49.754;20.158;2023-01-25T08:01:52;28.90;;;11.60;;
34064;SDS011;20339;49.754;20.158;2023-01-25T08:04:23;26.40;;;10.60;;
34064;SDS011;20339;49.754;20.158;2023-01-25T08:06:54;18.20;;;8.00;;
34064;SDS011;20339;49.754;20.158;2023-01-25T08:09:26;11.10;;;6.10;;
34064;SDS011;20339;49.754;20.158;2023-01-25T08:11:56;8.70;;;4.80;;
34064;SDS011;20339;49.754;20.158;2023-01-25T08:14:30;14.50;;;8.30;;
34064;SDS011;20339;49.754;20.158;2023-01-25T08:17:00;14.50;;;9.60;;
34064;SDS011;20339;49.754;20.158;2023-01-25T08:19:31;10.70;;;6.70;;
34064;SDS011;20339;49.754;20.158;2023-01-25T08:22:02;7.80;;;4.60;;
34064;SDS011;20339;49.754;20.158;2023-01-25T08:24:34;7.10;;;4.60;;
34064;SDS011;20339;49.754;20.158;2023-01-25T08:27:05;7.00;;;4.50;;
34064;SDS011;20339;49.754;20.158;2023-01-25T08:29:36;6.70;;;4.00;;
34064;SDS011;20339;49.754;20.158;2023-01-25T08:32:07;5.30;;;3.30;;
34064;SDS011;20339;49.754;20.158;2023-01-25T08:34:38;4.10;;;2.90;;
34064;SDS011;20339;49.754;20.158;2023-01-25T08:37:12;5.20;;;3.20;;
34064;SDS011;20339;49.754;20.158;2023-01-25T08:39:43;4.70;;;2.80;;
34064;SDS011;20339;49.754;20.158;2023-01-25T08:42:14;5.80;;;3.50;;
34064;SDS011;20339;49.754;20.158;2023-01-25T08:44:44;6.10;;;4.00;;
34064;SDS011;20339;49.754;20.158;2023-01-25T08:47:16;8.10;;;5.10;;
34064;SDS011;20339;49.754;20.158;2023-01-25T08:49:47;8.40;;;5.40;;
34064;SDS011;20339;49.754;20.158;2023-01-25T08:52:19;10.80;;;6.30;;
34064;SDS011;20339;49.754;20.158;2023-01-25T08:54:50;10.80;;;6.20;;
34064;SDS011;20339;49.754;20.158;2023-01-25T08:57:20;11.40;;;6.80;;
34064;SDS011;20339;49.754;20.158;2023-01-25T08:59:51;8.70;;;5.10;;
34064;SDS011;20339;49.754;20.158;2023-01-25T09:02:22;9.00;;;6.00;;
34064;SDS011;20339;49.754;20.158;2023-01-25T09:04:53;8.60;;;5.80;;
34064;SDS011;20339;49.754;20.158;2023-01-25T09:07:24;10.50;;;6.70;;
34064;SDS011;20339;49.754;20.158;2023-01-25T09:09:55;11.10;;;6.80;;
34064;SDS011;20339;49.754;20.158;2023-01-25T09:12:26;13.40;;;8.00;;
34064;SDS011;20339;49.754;20.158;2023-01-25T09:14:58;13.70;;;8.90;;
34064;SDS011;20339;49.754;20.158;2023-01-25T09:17:29;13.50;;;9.20;;
34064;SDS011;20339;49.754;20.158;2023-01-25T09:20:00;13.50;;;9.50;;
34064;SDS011;20339;49.754;20.158;2023-01-25T09:22:31;15.00;;;10.40;;
34064;SDS011;20339;49.754;20.158;2023-01-25T09:25:02;14.30;;;8.80;;
34064;SDS011;20339;49.754;20.158;2023-01-25T09:27:34;15.00;;;9.10;;
34064;SDS011;20339;49.754;20.158;2023-01-25T09:30:07;13.20;;;8.80;;
34064;SDS011;20339;49.754;20.158;2023-01-25T09:32:39;10.60;;;7.30;;
34064;SDS011;20339;49.754;20.158;2023-01-25T09:35:10;12.70;;;8.30;;
34064;SDS011;20339;49.754;20.158;2023-01-25T09:37:41;12.90;;;8.10;;
34064;SDS011;20339;49.754;20.158;2023-01-25T09:40:16;14.90;;;8.30;;
34064;SDS011;20339;49.754;20.158;2023-01-25T09:42:52;13.70;;;8.30;;
34064;SDS011;20339;49.754;20.158;2023-01-25T09:45:31;13.80;;;8.60;;
34064;SDS011;20339;49.754;20.158;2023-01-25T09:48:08;12.20;;;8.00;;
34064;SDS011;20339;49.754;20.158;2023-01-25T09:50:56;11.40;;;7.50;;
34064;SDS011;20339;49.754;20.158;2023-01-25T09:53:36;11.20;;;7.00;;
34064;SDS011;20339;49.754;20.158;2023-01-25T09:56:11;10.60;;;7.10;;
34064;SDS011;20339;49.754;20.158;2023-01-25T09:58:47;10.90;;;6.90;;
34064;SDS011;20339;49.754;20.158;2023-01-25T10:01:26;5.20;;;3.40;;
34064;SDS011;20339;49.754;20.158;2023-01-25T10:04:12;4.40;;;3.40;;
34064;SDS011;20339;49.754;20.158;2023-01-25T10:06:47;6.20;;;4.30;;
34064;SDS011;20339;49.754;20.158;2023-01-25T10:09:23;9.70;;;6.30;;
34064;SDS011;20339;49.754;20.158;2023-01-25T10:12:03;4.80;;;3.50;;
34064;SDS011;20339;49.754;20.158;2023-01-25T10:14:41;4.10;;;3.00;;
34064;SDS011;20339;49.754;20.158;2023-01-25T10:17:15;4.20;;;3.10;;
34064;SDS011;20339;49.754;20.158;2023-01-25T10:19:59;4.30;;;3.20;;
34064;SDS011;20339;49.754;20.158;2023-01-25T10:22:38;6.10;;;3.80;;
34064;SDS011;20339;49.754;20.158;2023-01-25T10:25:19;13.40;;;9.10;;
34064;SDS011;20339;49.754;20.158;2023-01-25T10:28:01;11.60;;;7.60;;
34064;SDS011;20339;49.754;20.158;2023-01-25T10:30:42;12.10;;;8.00;;
34064;SDS011;20339;49.754;20.158;2023-01-25T10:33:21;12.90;;;8.50;;
34064;SDS011;20339;49.754;20.158;2023-01-25T10:35:54;15.00;;;10.00;;
34064;SDS011;20339;49.754;20.158;2023-01-25T10:38:28;15.60;;;10.10;;
34064;SDS011;20339;49.754;20.158;2023-01-25T10:41:03;17.10;;;11.50;;
34064;SDS011;20339;49.754;20.158;2023-01-25T10:43:37;18.00;;;13.00;;
34064;SDS011;20339;49.754;20.158;2023-01-25T10:46:13;17.50;;;12.10;;
34064;SDS011;20339;49.754;20.158;2023-01-25T10:48:49;18.70;;;13.00;;
34064;SDS011;20339;49.754;20.158;2023-01-25T10:51:31;16.30;;;11.20;;
34064;SDS011;20339;49.754;20.158;2023-01-25T10:54:04;15.50;;;10.40;;
34064;SDS011;20339;49.754;20.158;2023-01-25T10:56:42;14.30;;;9.70;;
34064;SDS011;20339;49.754;20.158;2023-01-25T10:59:16;12.20;;;8.60;;
34064;SDS011;20339;49.754;20.158;2023-01-25T11:01:49;10.30;;;7.40;;
34064;SDS011;20339;49.754;20.158;2023-01-25T11:04:27;11.40;;;7.70;;
34064;SDS011;20339;49.754;20.158;2023-01-25T11:07:00;10.90;;;7.80;;
34064;SDS011;20339;49.754;20.158;2023-01-25T11:09:33;11.70;;;8.80;;
34064;SDS011;20339;49.754;20.158;2023-01-25T11:12:16;9.60;;;6.60;;
34064;SDS011;20339;49.754;20.158;2023-01-25T11:14:48;8.10;;;5.70;;
34064;SDS011;20339;49.754;20.158;2023-01-25T11:17:24;9.50;;;5.60;;
34064;SDS011;20339;49.754;20.158;2023-01-25T11:20:06;8.10;;;4.90;;
34064;SDS011;20339;49.754;20.158;2023-01-25T11:22:51;7.00;;;4.70;;
34064;SDS011;20339;49.754;20.158;2023-01-25T11:25:25;7.00;;;4.20;;
34064;SDS011;20339;49.754;20.158;2023-01-25T11:28:13;7.30;;;4.20;;
34064;SDS011;20339;49.754;20.158;2023-01-25T11:30:48;6.70;;;4.40;;
34064;SDS011;20339;49.754;20.158;2023-01-25T11:33:20;6.90;;;4.80;;
34064;SDS011;20339;49.754;20.158;2023-01-25T11:38:46;8.50;;;4.90;;
34064;SDS011;20339;49.754;20.158;2023-01-25T11:41:26;6.30;;;4.20;;
34064;SDS011;20339;49.754;20.158;2023-01-25T11:44:09;7.70;;;4.30;;
34064;SDS011;20339;49.754;20.158;2023-01-25T11:46:56;8.00;;;5.00;;
34064;SDS011;20339;49.754;20.158;2023-01-25T11:49:40;7.20;;;5.00;;
34064;SDS011;20339;49.754;20.158;2023-01-25T11:52:23;7.90;;;5.00;;
34064;SDS011;20339;49.754;20.158;2023-01-25T11:55:05;7.80;;;5.10;;
34064;SDS011;20339;49.754;20.158;2023-01-25T12:00:52;6.90;;;5.10;;
34064;SDS011;20339;49.754;20.158;2023-01-25T12:03:39;8.10;;;5.20;;
34064;SDS011;20339;49.754;20.158;2023-01-25T12:06:28;7.10;;;4.60;;
34064;SDS011;20339;49.754;20.158;2023-01-25T12:09:14;9.80;;;6.30;;
34064;SDS011;20339;49.754;20.158;2023-01-25T12:14:49;7.90;;;5.40;;
34064;SDS011;20339;49.754;20.158;2023-01-25T12:17:38;8.60;;;5.60;;
34064;SDS011;20339;49.754;20.158;2023-01-25T12:20:33;8.20;;;5.80;;
34064;SDS011;20339;49.754;20.158;2023-01-25T12:23:30;10.00;;;6.40;;
34064;SDS011;20339;49.754;20.158;2023-01-25T12:26:14;11.20;;;7.10;;
34064;SDS011;20339;49.754;20.158;2023-01-25T12:28:53;11.90;;;8.60;;
34064;SDS011;20339;49.754;20.158;2023-01-25T12:31:35;12.60;;;8.30;;
34064;SDS011;20339;49.754;20.158;2023-01-25T12:34:13;14.70;;;9.00;;
34064;SDS011;20339;49.754;20.158;2023-01-25T12:36:50;12.40;;;8.40;;
34064;SDS011;20339;49.754;20.158;2023-01-25T12:39:22;12.00;;;8.90;;
34064;SDS011;20339;49.754;20.158;2023-01-25T12:41:59;12.90;;;7.90;;
34064;SDS011;20339;49.754;20.158;2023-01-25T12:44:35;13.60;;;8.60;;
34064;SDS011;20339;49.754;20.158;2023-01-25T12:47:12;11.80;;;8.40;;
34064;SDS011;20339;49.754;20.158;2023-01-25T12:49:48;13.30;;;9.00;;
34064;SDS011;20339;49.754;20.158;2023-01-25T12:52:26;14.30;;;9.60;;
34064;SDS011;20339;49.754;20.158;2023-01-25T12:55:01;13.80;;;10.00;;
34064;SDS011;20339;49.754;20.158;2023-01-25T12:57:35;12.80;;;8.20;;
34064;SDS011;20339;49.754;20.158;2023-01-25T13:00:16;14.80;;;10.20;;
34064;SDS011;20339;49.754;20.158;2023-01-25T13:02:57;12.30;;;8.20;;
34064;SDS011;20339;49.754;20.158;2023-01-25T13:05:45;10.00;;;6.80;;
34064;SDS011;20339;49.754;20.158;2023-01-25T13:08:26;9.40;;;6.60;;
34064;SDS011;20339;49.754;20.158;2023-01-25T13:11:10;10.00;;;6.30;;
34064;SDS011;20339;49.754;20.158;2023-01-25T13:13:48;9.30;;;6.40;;
34064;SDS011;20339;49.754;20.158;2023-01-25T13:22:10;10.10;;;6.60;;
34064;SDS011;20339;49.754;20.158;2023-01-25T13:27:47;7.90;;;5.80;;
34064;SDS011;20339;49.754;20.158;2023-01-25T13:30:29;8.40;;;5.60;;
34064;SDS011;20339;49.754;20.158;2023-01-25T13:33:03;9.70;;;6.50;;
34064;SDS011;20339;49.754;20.158;2023-01-25T13:35:37;11.40;;;8.10;;
34064;SDS011;20339;49.754;20.158;2023-01-25T13:38:27;9.90;;;7.30;;
34064;SDS011;20339;49.754;20.158;2023-01-25T13:41:10;11.70;;;8.00;;
34064;SDS011;20339;49.754;20.158;2023-01-25T13:43:46;11.30;;;7.90;;
34064;SDS011;20339;49.754;20.158;2023-01-25T13:46:22;11.70;;;8.40;;
34064;SDS011;20339;49.754;20.158;2023-01-25T13:49:01;11.30;;;7.70;;
34064;SDS011;20339;49.754;20.158;2023-01-25T13:51:36;12.90;;;8.00;;
34064;SDS011;20339;49.754;20.158;2023-01-25T13:54:15;12.10;;;8.90;;
34064;SDS011;20339;49.754;20.158;2023-01-25T13:56:46;15.20;;;8.40;;
34064;SDS011;20339;49.754;20.158;2023-01-25T13:59:31;12.60;;;8.20;;
34064;SDS011;20339;49.754;20.158;2023-01-25T14:02:03;12.30;;;8.10;;
34064;SDS011;20339;49.754;20.158;2023-01-25T14:04:42;12.40;;;9.10;;
34064;SDS011;20339;49.754;20.158;2023-01-25T14:07:16;10.60;;;6.90;;
34064;SDS011;20339;49.754;20.158;2023-01-25T14:09:48;11.70;;;7.50;;
34064;SDS011;20339;49.754;20.158;2023-01-25T14:12:22;13.20;;;8.30;;
34064;SDS011;20339;49.754;20.158;2023-01-25T14:15:14;14.60;;;9.70;;
34064;SDS011;20339;49.754;20.158;2023-01-25T14:17:54;17.20;;;11.00;;
34064;SDS011;20339;49.754;20.158;2023-01-25T14:20:39;13.50;;;9.50;;
34064;SDS011;20339;49.754;20.158;2023-01-25T14:23:24;14.90;;;11.10;;
34064;SDS011;20339;49.754;20.158;2023-01-25T14:25:57;14.20;;;9.70;;
34064;SDS011;20339;49.754;20.158;2023-01-25T14:28:29;14.80;;;9.50;;
34064;SDS011;20339;49.754;20.158;2023-01-25T14:31:03;12.80;;;9.30;;
34064;SDS011;20339;49.754;20.158;2023-01-25T14:33:37;14.40;;;9.30;;
34064;SDS011;20339;49.754;20.158;2023-01-25T14:36:14;14.20;;;9.20;;
34064;SDS011;20339;49.754;20.158;2023-01-25T14:38:46;13.30;;;9.00;;
34064;SDS011;20339;49.754;20.158;2023-01-25T14:41:18;14.20;;;9.70;;
34064;SDS011;20339;49.754;20.158;2023-01-25T14:43:54;11.10;;;7.80;;
34064;SDS011;20339;49.754;20.158;2023-01-25T14:46:27;13.80;;;8.70;;
34064;SDS011;20339;49.754;20.158;2023-01-25T14:49:13;10.60;;;6.40;;
34064;SDS011;20339;49.754;20.158;2023-01-25T14:51:55;10.90;;;7.00;;
34064;SDS011;20339;49.754;20.158;2023-01-25T14:54:33;10.90;;;7.10;;
34064;SDS011;20339;49.754;20.158;2023-01-25T14:57:06;10.20;;;7.20;;
34064;SDS011;20339;49.754;20.158;2023-01-25T15:00:00;9.20;;;6.20;;
34064;SDS011;20339;49.754;20.158;2023-01-25T15:02:35;7.40;;;6.00;;
34064;SDS011;20339;49.754;20.158;2023-01-25T15:05:17;10.70;;;6.50;;
34064;SDS011;20339;49.754;20.158;2023-01-25T15:07:53;9.20;;;6.40;;
34064;SDS011;20339;49.754;20.158;2023-01-25T15:10:26;10.70;;;7.20;;
34064;SDS011;20339;49.754;20.158;2023-01-25T15:13:00;10.10;;;6.90;;
34064;SDS011;20339;49.754;20.158;2023-01-25T15:15:34;9.70;;;6.80;;
34064;SDS011;20339;49.754;20.158;2023-01-25T15:21:15;9.70;;;6.90;;
34064;SDS011;20339;49.754;20.158;2023-01-25T15:23:48;12.70;;;8.20;;
34064;SDS011;20339;49.754;20.158;2023-01-25T15:26:21;10.40;;;6.90;;
34064;SDS011;20339;49.754;20.158;2023-01-25T15:28:54;11.70;;;7.90;;
34064;SDS011;20339;49.754;20.158;2023-01-25T15:31:28;9.50;;;6.10;;